Saratoga, Minnesota
Current Conditions -  °F | °C
As of 11:14 AM on Saturday 20 Dec 2014 (Local Time) from KONA Reporting Station
Haze Haze  
Wind Chill: 29°   Ceiling: 1400
Heat Index: 34°   Visibility: 5mi
Dew Point: 30°   Wind: 6mph
Humidity: 87%   Direction: 120°ESE
Pressure: 30.2"   Gusts: NA
Location:  43.9334°N, 92.0195°W
Report Text: KONA 201714Z AUTO 12005KT 5SM HZ OVC014 01/M01 A3020 RMK AO2
Loading
Personal Weather Stations






























Interactive Weather Map New forecast layout! Learn more

10-Day Weather Forecast

Advertisements
Track Severe Weather on mobile